sensor_id;sensor_type;location;lat;lon;timestamp;P1;durP1;ratioP1;P2;durP2;ratioP2
19195;SDS011;9730;48.926;11.376;2022-07-04T00:00:45;2.45;;;2.08;;
19195;SDS011;9730;48.926;11.376;2022-07-04T00:03:12;3.22;;;3.03;;
19195;SDS011;9730;48.926;11.376;2022-07-04T00:05:38;4.72;;;1.92;;
19195;SDS011;9730;48.926;11.376;2022-07-04T00:08:05;3.35;;;2.30;;
19195;SDS011;9730;48.926;11.376;2022-07-04T00:10:31;4.10;;;2.08;;
19195;SDS011;9730;48.926;11.376;2022-07-04T00:13:00;3.38;;;2.35;;
19195;SDS011;9730;48.926;11.376;2022-07-04T00:15:26;4.97;;;2.30;;
19195;SDS011;9730;48.926;11.376;2022-07-04T00:17:53;3.13;;;2.10;;
19195;SDS011;9730;48.926;11.376;2022-07-04T00:20:19;2.08;;;1.80;;
19195;SDS011;9730;48.926;11.376;2022-07-04T00:22:46;2.35;;;1.80;;
19195;SDS011;9730;48.926;11.376;2022-07-04T00:25:13;5.20;;;1.98;;
19195;SDS011;9730;48.926;11.376;2022-07-04T00:27:39;3.92;;;2.38;;
19195;SDS011;9730;48.926;11.376;2022-07-04T00:30:08;4.20;;;2.15;;
19195;SDS011;9730;48.926;11.376;2022-07-04T00:32:35;8.93;;;2.00;;
19195;SDS011;9730;48.926;11.376;2022-07-04T00:35:02;2.72;;;1.83;;
19195;SDS011;9730;48.926;11.376;2022-07-04T00:37:29;2.65;;;2.00;;
19195;SDS011;9730;48.926;11.376;2022-07-04T00:39:55;2.78;;;2.30;;
19195;SDS011;9730;48.926;11.376;2022-07-04T00:42:22;4.18;;;2.28;;
19195;SDS011;9730;48.926;11.376;2022-07-04T00:44:48;3.08;;;2.20;;
19195;SDS011;9730;48.926;11.376;2022-07-04T00:47:16;5.28;;;2.20;;
19195;SDS011;9730;48.926;11.376;2022-07-04T00:49:43;4.40;;;2.00;;
19195;SDS011;9730;48.926;11.376;2022-07-04T00:52:09;2.75;;;2.20;;
19195;SDS011;9730;48.926;11.376;2022-07-04T00:54:38;3.28;;;1.95;;
19195;SDS011;9730;48.926;11.376;2022-07-04T00:57:05;2.47;;;2.08;;
19195;SDS011;9730;48.926;11.376;2022-07-04T00:59:32;2.00;;;1.80;;
19195;SDS011;9730;48.926;11.376;2022-07-04T01:01:59;3.60;;;2.15;;
19195;SDS011;9730;48.926;11.376;2022-07-04T01:04:27;2.08;;;1.85;;
19195;SDS011;9730;48.926;11.376;2022-07-04T01:06:53;2.15;;;1.63;;
19195;SDS011;9730;48.926;11.376;2022-07-04T01:09:20;2.10;;;1.92;;
19195;SDS011;9730;48.926;11.376;2022-07-04T01:11:48;2.30;;;2.10;;
19195;SDS011;9730;48.926;11.376;2022-07-04T01:14:15;5.22;;;1.95;;
19195;SDS011;9730;48.926;11.376;2022-07-04T01:16:42;2.67;;;2.10;;
19195;SDS011;9730;48.926;11.376;2022-07-04T01:19:08;3.22;;;2.15;;
19195;SDS011;9730;48.926;11.376;2022-07-04T01:21:36;2.13;;;1.90;;
19195;SDS011;9730;48.926;11.376;2022-07-04T01:24:03;3.20;;;2.17;;
19195;SDS011;9730;48.926;11.376;2022-07-04T01:26:30;2.33;;;2.00;;
19195;SDS011;9730;48.926;11.376;2022-07-04T01:28:57;3.08;;;2.00;;
19195;SDS011;9730;48.926;11.376;2022-07-04T01:31:23;3.50;;;2.20;;
19195;SDS011;9730;48.926;11.376;2022-07-04T01:33:50;3.35;;;2.03;;
19195;SDS011;9730;48.926;11.376;2022-07-04T01:36:17;3.33;;;2.15;;
19195;SDS011;9730;48.926;11.376;2022-07-04T01:38:46;5.63;;;2.47;;
19195;SDS011;9730;48.926;11.376;2022-07-04T01:41:12;2.78;;;2.28;;
19195;SDS011;9730;48.926;11.376;2022-07-04T01:43:39;5.70;;;2.15;;
19195;SDS011;9730;48.926;11.376;2022-07-04T01:46:05;2.80;;;2.03;;
19195;SDS011;9730;48.926;11.376;2022-07-04T01:48:32;3.15;;;2.10;;
19195;SDS011;9730;48.926;11.376;2022-07-04T01:50:59;4.70;;;2.45;;
19195;SDS011;9730;48.926;11.376;2022-07-04T01:53:25;2.17;;;1.98;;
19195;SDS011;9730;48.926;11.376;2022-07-04T01:55:53;2.65;;;2.00;;
19195;SDS011;9730;48.926;11.376;2022-07-04T01:58:20;2.40;;;2.17;;
19195;SDS011;9730;48.926;11.376;2022-07-04T02:00:47;4.18;;;2.42;;
19195;SDS011;9730;48.926;11.376;2022-07-04T02:03:31;3.80;;;2.40;;
19195;SDS011;9730;48.926;11.376;2022-07-04T02:05:57;2.83;;;2.00;;
19195;SDS011;9730;48.926;11.376;2022-07-04T02:08:24;2.50;;;2.30;;
19195;SDS011;9730;48.926;11.376;2022-07-04T02:11:13;2.78;;;2.40;;
19195;SDS011;9730;48.926;11.376;2022-07-04T02:13:39;4.97;;;2.17;;
19195;SDS011;9730;48.926;11.376;2022-07-04T02:16:05;6.85;;;2.35;;
19195;SDS011;9730;48.926;11.376;2022-07-04T02:18:31;3.60;;;2.17;;
19195;SDS011;9730;48.926;11.376;2022-07-04T02:20:58;5.07;;;2.38;;
19195;SDS011;9730;48.926;11.376;2022-07-04T02:23:25;3.13;;;2.40;;
19195;SDS011;9730;48.926;11.376;2022-07-04T02:25:52;7.57;;;2.40;;
19195;SDS011;9730;48.926;11.376;2022-07-04T02:28:20;3.80;;;2.40;;
19195;SDS011;9730;48.926;11.376;2022-07-04T02:30:46;5.17;;;2.50;;
19195;SDS011;9730;48.926;11.376;2022-07-04T02:33:13;3.63;;;2.50;;
19195;SDS011;9730;48.926;11.376;2022-07-04T02:35:39;3.92;;;2.53;;
19195;SDS011;9730;48.926;11.376;2022-07-04T02:38:06;2.40;;;2.20;;
19195;SDS011;9730;48.926;11.376;2022-07-04T02:40:33;2.33;;;2.13;;
19195;SDS011;9730;48.926;11.376;2022-07-04T02:42:59;2.72;;;2.45;;
19195;SDS011;9730;48.926;11.376;2022-07-04T02:45:27;3.33;;;2.22;;
19195;SDS011;9730;48.926;11.376;2022-07-04T02:47:54;2.58;;;2.38;;
19195;SDS011;9730;48.926;11.376;2022-07-04T02:50:20;2.85;;;2.47;;
19195;SDS011;9730;48.926;11.376;2022-07-04T02:52:47;7.18;;;2.50;;
19195;SDS011;9730;48.926;11.376;2022-07-04T02:55:14;3.38;;;2.50;;
19195;SDS011;9730;48.926;11.376;2022-07-04T02:57:40;5.63;;;2.33;;
19195;SDS011;9730;48.926;11.376;2022-07-04T03:00:07;2.83;;;2.55;;
19195;SDS011;9730;48.926;11.376;2022-07-04T03:02:36;4.13;;;2.63;;
19195;SDS011;9730;48.926;11.376;2022-07-04T03:05:03;2.80;;;2.53;;
19195;SDS011;9730;48.926;11.376;2022-07-04T03:07:31;6.35;;;2.40;;
19195;SDS011;9730;48.926;11.376;2022-07-04T03:09:57;2.80;;;2.00;;
19195;SDS011;9730;48.926;11.376;2022-07-04T03:12:24;4.63;;;2.47;;
19195;SDS011;9730;48.926;11.376;2022-07-04T03:14:51;3.08;;;2.50;;
19195;SDS011;9730;48.926;11.376;2022-07-04T03:17:19;3.33;;;2.20;;
19195;SDS011;9730;48.926;11.376;2022-07-04T03:19:47;2.55;;;2.20;;
19195;SDS011;9730;48.926;11.376;2022-07-04T03:22:13;3.65;;;2.13;;
19195;SDS011;9730;48.926;11.376;2022-07-04T03:24:40;3.65;;;3.35;;
19195;SDS011;9730;48.926;11.376;2022-07-04T03:27:07;5.63;;;2.40;;
19195;SDS011;9730;48.926;11.376;2022-07-04T03:29:33;2.72;;;2.53;;
19195;SDS011;9730;48.926;11.376;2022-07-04T03:32:00;5.88;;;2.45;;
19195;SDS011;9730;48.926;11.376;2022-07-04T03:34:27;3.60;;;2.33;;
19195;SDS011;9730;48.926;11.376;2022-07-04T03:36:55;5.32;;;2.70;;
19195;SDS011;9730;48.926;11.376;2022-07-04T03:39:21;8.73;;;2.40;;
19195;SDS011;9730;48.926;11.376;2022-07-04T03:41:48;3.33;;;2.60;;
19195;SDS011;9730;48.926;11.376;2022-07-04T03:44:14;4.93;;;2.67;;
19195;SDS011;9730;48.926;11.376;2022-07-04T03:46:42;3.28;;;2.60;;
19195;SDS011;9730;48.926;11.376;2022-07-04T03:49:09;4.88;;;2.35;;
19195;SDS011;9730;48.926;11.376;2022-07-04T03:51:35;2.60;;;2.40;;
19195;SDS011;9730;48.926;11.376;2022-07-04T03:54:03;2.58;;;2.20;;
19195;SDS011;9730;48.926;11.376;2022-07-04T03:56:30;6.13;;;2.30;;
19195;SDS011;9730;48.926;11.376;2022-07-04T03:58:57;4.32;;;2.60;;
19195;SDS011;9730;48.926;11.376;2022-07-04T04:01:23;4.82;;;2.30;;
19195;SDS011;9730;48.926;11.376;2022-07-04T04:03:50;4.38;;;2.53;;
19195;SDS011;9730;48.926;11.376;2022-07-04T04:06:34;3.17;;;2.50;;
19195;SDS011;9730;48.926;11.376;2022-07-04T04:09:01;14.38;;;3.08;;
19195;SDS011;9730;48.926;11.376;2022-07-04T04:11:29;11.63;;;3.05;;
19195;SDS011;9730;48.926;11.376;2022-07-04T04:13:56;3.10;;;2.53;;
19195;SDS011;9730;48.926;11.376;2022-07-04T04:16:23;3.10;;;2.13;;
19195;SDS011;9730;48.926;11.376;2022-07-04T04:18:50;5.35;;;2.60;;
19195;SDS011;9730;48.926;11.376;2022-07-04T04:21:17;6.93;;;3.00;;
19195;SDS011;9730;48.926;11.376;2022-07-04T04:23:44;4.88;;;2.33;;
19195;SDS011;9730;48.926;11.376;2022-07-04T04:26:10;3.80;;;2.20;;
19195;SDS011;9730;48.926;11.376;2022-07-04T04:28:39;2.80;;;2.40;;
19195;SDS011;9730;48.926;11.376;2022-07-04T04:31:05;6.27;;;2.60;;
19195;SDS011;9730;48.926;11.376;2022-07-04T04:33:33;2.88;;;2.47;;
19195;SDS011;9730;48.926;11.376;2022-07-04T04:36:00;6.47;;;2.65;;
19195;SDS011;9730;48.926;11.376;2022-07-04T04:38:27;3.50;;;2.50;;
19195;SDS011;9730;48.926;11.376;2022-07-04T04:40:54;8.40;;;2.35;;
19195;SDS011;9730;48.926;11.376;2022-07-04T04:43:20;3.40;;;2.67;;
19195;SDS011;9730;48.926;11.376;2022-07-04T04:45:48;4.68;;;2.70;;
19195;SDS011;9730;48.926;11.376;2022-07-04T04:48:15;4.50;;;2.80;;
19195;SDS011;9730;48.926;11.376;2022-07-04T04:50:42;6.18;;;3.40;;
19195;SDS011;9730;48.926;11.376;2022-07-04T04:53:09;3.83;;;2.05;;
19195;SDS011;9730;48.926;11.376;2022-07-04T04:55:35;6.75;;;2.80;;
19195;SDS011;9730;48.926;11.376;2022-07-04T04:58:02;10.52;;;2.63;;
19195;SDS011;9730;48.926;11.376;2022-07-04T05:00:29;4.05;;;3.00;;
19195;SDS011;9730;48.926;11.376;2022-07-04T05:02:57;2.72;;;2.35;;
19195;SDS011;9730;48.926;11.376;2022-07-04T05:05:23;4.20;;;3.25;;
19195;SDS011;9730;48.926;11.376;2022-07-04T05:07:50;4.35;;;2.75;;
19195;SDS011;9730;48.926;11.376;2022-07-04T05:10:17;3.05;;;2.50;;
19195;SDS011;9730;48.926;11.376;2022-07-04T05:12:43;6.45;;;2.70;;
19195;SDS011;9730;48.926;11.376;2022-07-04T05:15:11;2.88;;;2.53;;
19195;SDS011;9730;48.926;11.376;2022-07-04T05:17:37;3.63;;;2.30;;
19195;SDS011;9730;48.926;11.376;2022-07-04T05:20:06;2.60;;;2.40;;
19195;SDS011;9730;48.926;11.376;2022-07-04T05:22:33;3.90;;;2.55;;
19195;SDS011;9730;48.926;11.376;2022-07-04T05:25:00;22.90;;;3.72;;
19195;SDS011;9730;48.926;11.376;2022-07-04T05:27:27;2.65;;;2.42;;
19195;SDS011;9730;48.926;11.376;2022-07-04T05:29:53;2.92;;;2.45;;
19195;SDS011;9730;48.926;11.376;2022-07-04T05:32:20;4.32;;;2.67;;
19195;SDS011;9730;48.926;11.376;2022-07-04T05:34:46;3.30;;;2.42;;
19195;SDS011;9730;48.926;11.376;2022-07-04T05:37:14;2.83;;;2.13;;
19195;SDS011;9730;48.926;11.376;2022-07-04T05:39:41;2.92;;;2.15;;
19195;SDS011;9730;48.926;11.376;2022-07-04T05:42:07;6.07;;;2.42;;
19195;SDS011;9730;48.926;11.376;2022-07-04T05:44:34;4.53;;;2.55;;
19195;SDS011;9730;48.926;11.376;2022-07-04T05:47:01;2.70;;;2.38;;
19195;SDS011;9730;48.926;11.376;2022-07-04T05:49:28;4.07;;;2.80;;
19195;SDS011;9730;48.926;11.376;2022-07-04T05:51:54;7.47;;;2.83;;
19195;SDS011;9730;48.926;11.376;2022-07-04T05:54:22;4.18;;;2.40;;
19195;SDS011;9730;48.926;11.376;2022-07-04T05:56:49;5.40;;;2.07;;
19195;SDS011;9730;48.926;11.376;2022-07-04T05:59:15;4.95;;;2.42;;
19195;SDS011;9730;48.926;11.376;2022-07-04T06:01:42;4.72;;;2.53;;
19195;SDS011;9730;48.926;11.376;2022-07-04T06:04:08;2.97;;;2.20;;
19195;SDS011;9730;48.926;11.376;2022-07-04T06:06:35;3.05;;;2.70;;
19195;SDS011;9730;48.926;11.376;2022-07-04T06:09:02;4.10;;;3.00;;
19195;SDS011;9730;48.926;11.376;2022-07-04T06:11:30;7.15;;;3.97;;
19195;SDS011;9730;48.926;11.376;2022-07-04T06:13:57;8.73;;;3.25;;
19195;SDS011;9730;48.926;11.376;2022-07-04T06:16:24;3.90;;;3.28;;
19195;SDS011;9730;48.926;11.376;2022-07-04T06:18:50;3.45;;;2.58;;
19195;SDS011;9730;48.926;11.376;2022-07-04T06:21:17;4.45;;;2.63;;
19195;SDS011;9730;48.926;11.376;2022-07-04T06:23:43;3.72;;;2.55;;
19195;SDS011;9730;48.926;11.376;2022-07-04T06:26:10;3.03;;;2.63;;
19195;SDS011;9730;48.926;11.376;2022-07-04T06:28:38;5.25;;;2.22;;
19195;SDS011;9730;48.926;11.376;2022-07-04T06:31:05;4.05;;;2.17;;
19195;SDS011;9730;48.926;11.376;2022-07-04T06:33:31;4.22;;;2.28;;
19195;SDS011;9730;48.926;11.376;2022-07-04T06:36:18;2.85;;;2.00;;
19195;SDS011;9730;48.926;11.376;2022-07-04T06:38:43;2.58;;;1.80;;
19195;SDS011;9730;48.926;11.376;2022-07-04T06:41:10;2.33;;;2.13;;
19195;SDS011;9730;48.926;11.376;2022-07-04T06:43:36;4.03;;;2.10;;
19195;SDS011;9730;48.926;11.376;2022-07-04T06:46:04;3.78;;;2.10;;
19195;SDS011;9730;48.926;11.376;2022-07-04T06:48:31;3.60;;;2.00;;
19195;SDS011;9730;48.926;11.376;2022-07-04T06:50:58;2.58;;;2.08;;
19195;SDS011;9730;48.926;11.376;2022-07-04T06:53:24;5.78;;;2.15;;
19195;SDS011;9730;48.926;11.376;2022-07-04T06:55:51;5.00;;;2.20;;
19195;SDS011;9730;48.926;11.376;2022-07-04T06:58:17;4.30;;;2.55;;
19195;SDS011;9730;48.926;11.376;2022-07-04T07:00:44;5.85;;;2.33;;
19195;SDS011;9730;48.926;11.376;2022-07-04T07:03:12;3.17;;;2.30;;
19195;SDS011;9730;48.926;11.376;2022-07-04T07:05:38;4.87;;;2.30;;
19195;SDS011;9730;48.926;11.376;2022-07-04T07:08:05;3.92;;;1.77;;
19195;SDS011;9730;48.926;11.376;2022-07-04T07:10:32;3.03;;;1.83;;
19195;SDS011;9730;48.926;11.376;2022-07-04T07:13:00;4.68;;;2.15;;
19195;SDS011;9730;48.926;11.376;2022-07-04T07:15:26;6.80;;;1.95;;
19195;SDS011;9730;48.926;11.376;2022-07-04T07:17:53;3.88;;;2.03;;
19195;SDS011;9730;48.926;11.376;2022-07-04T07:20:21;4.88;;;2.00;;
19195;SDS011;9730;48.926;11.376;2022-07-04T07:22:47;3.43;;;1.80;;
19195;SDS011;9730;48.926;11.376;2022-07-04T07:25:14;3.35;;;1.80;;
19195;SDS011;9730;48.926;11.376;2022-07-04T07:27:40;3.50;;;2.13;;
19195;SDS011;9730;48.926;11.376;2022-07-04T07:30:07;4.45;;;2.40;;
19195;SDS011;9730;48.926;11.376;2022-07-04T07:32:34;8.50;;;1.95;;
19195;SDS011;9730;48.926;11.376;2022-07-04T07:35:01;4.32;;;2.00;;
19195;SDS011;9730;48.926;11.376;2022-07-04T07:37:29;5.03;;;1.63;;
19195;SDS011;9730;48.926;11.376;2022-07-04T07:39:55;3.03;;;1.80;;
19195;SDS011;9730;48.926;11.376;2022-07-04T07:42:22;4.32;;;1.80;;
19195;SDS011;9730;48.926;11.376;2022-07-04T07:44:49;5.35;;;1.90;;
19195;SDS011;9730;48.926;11.376;2022-07-04T07:47:16;3.63;;;1.60;;
19195;SDS011;9730;48.926;11.376;2022-07-04T07:49:42;6.93;;;2.00;;
19195;SDS011;9730;48.926;11.376;2022-07-04T07:52:09;2.40;;;1.70;;
19195;SDS011;9730;48.926;11.376;2022-07-04T07:54:37;6.80;;;2.22;;
19195;SDS011;9730;48.926;11.376;2022-07-04T07:57:04;2.58;;;1.88;;
19195;SDS011;9730;48.926;11.376;2022-07-04T07:59:30;5.55;;;2.00;;
19195;SDS011;9730;48.926;11.376;2022-07-04T08:01:57;7.93;;;3.40;;
19195;SDS011;9730;48.926;11.376;2022-07-04T08:04:23;3.47;;;1.60;;
19195;SDS011;9730;48.926;11.376;2022-07-04T08:07:02;6.57;;;2.13;;
19195;SDS011;9730;48.926;11.376;2022-07-04T08:09:30;3.85;;;1.70;;
19195;SDS011;9730;48.926;11.376;2022-07-04T08:11:58;9.85;;;2.78;;
19195;SDS011;9730;48.926;11.376;2022-07-04T08:14:25;2.88;;;1.60;;
19195;SDS011;9730;48.926;11.376;2022-07-04T08:16:51;13.65;;;2.75;;
19195;SDS011;9730;48.926;11.376;2022-07-04T08:19:18;7.20;;;1.85;;
19195;SDS011;9730;48.926;11.376;2022-07-04T08:21:45;3.42;;;1.83;;
19195;SDS011;9730;48.926;11.376;2022-07-04T08:24:12;5.85;;;2.05;;
19195;SDS011;9730;48.926;11.376;2022-07-04T08:26:39;3.72;;;2.10;;
19195;SDS011;9730;48.926;11.376;2022-07-04T08:29:07;2.63;;;2.15;;
19195;SDS011;9730;48.926;11.376;2022-07-04T08:31:34;5.75;;;1.75;;
19195;SDS011;9730;48.926;11.376;2022-07-04T08:34:00;4.38;;;1.88;;
19195;SDS011;9730;48.926;11.376;2022-07-04T08:36:27;2.95;;;2.10;;
19195;SDS011;9730;48.926;11.376;2022-07-04T08:38:53;7.03;;;1.85;;
19195;SDS011;9730;48.926;11.376;2022-07-04T08:41:20;8.90;;;2.03;;
19195;SDS011;9730;48.926;11.376;2022-07-04T08:43:47;7.60;;;2.28;;
19195;SDS011;9730;48.926;11.376;2022-07-04T08:46:16;2.08;;;1.77;;
19195;SDS011;9730;48.926;11.376;2022-07-04T08:48:48;5.22;;;2.47;;
19195;SDS011;9730;48.926;11.376;2022-07-04T08:51:19;6.57;;;2.00;;
19195;SDS011;9730;48.926;11.376;2022-07-04T08:53:50;2.90;;;1.95;;
19195;SDS011;9730;48.926;11.376;2022-07-04T08:56:21;2.25;;;1.50;;
19195;SDS011;9730;48.926;11.376;2022-07-04T08:59:06;5.28;;;1.65;;
19195;SDS011;9730;48.926;11.376;2022-07-04T09:01:35;5.03;;;1.53;;
19195;SDS011;9730;48.926;11.376;2022-07-04T09:04:03;4.55;;;1.83;;
19195;SDS011;9730;48.926;11.376;2022-07-04T09:06:30;3.17;;;1.67;;
19195;SDS011;9730;48.926;11.376;2022-07-04T09:08:57;4.67;;;1.67;;
19195;SDS011;9730;48.926;11.376;2022-07-04T09:11:24;2.70;;;1.70;;
19195;SDS011;9730;48.926;11.376;2022-07-04T09:13:50;4.47;;;1.92;;
19195;SDS011;9730;48.926;11.376;2022-07-04T09:16:17;3.10;;;2.00;;
19195;SDS011;9730;48.926;11.376;2022-07-04T09:18:45;2.47;;;1.95;;
19195;SDS011;9730;48.926;11.376;2022-07-04T09:21:11;3.92;;;1.63;;
19195;SDS011;9730;48.926;11.376;2022-07-04T09:23:39;2.70;;;1.65;;
19195;SDS011;9730;48.926;11.376;2022-07-04T09:28:34;11.20;;;2.25;;
19195;SDS011;9730;48.926;11.376;2022-07-04T09:31:00;2.60;;;1.73;;
19195;SDS011;9730;48.926;11.376;2022-07-04T09:36:14;4.40;;;2.22;;
19195;SDS011;9730;48.926;11.376;2022-07-04T09:38:42;3.95;;;2.20;;
19195;SDS011;9730;48.926;11.376;2022-07-04T09:41:08;3.35;;;1.60;;
19195;SDS011;9730;48.926;11.376;2022-07-04T09:44:00;4.85;;;2.25;;
19195;SDS011;9730;48.926;11.376;2022-07-04T09:46:28;3.92;;;1.85;;
19195;SDS011;9730;48.926;11.376;2022-07-04T09:48:56;5.95;;;1.55;;
19195;SDS011;9730;48.926;11.376;2022-07-04T09:51:36;1.90;;;1.52;;
19195;SDS011;9730;48.926;11.376;2022-07-04T09:54:14;5.35;;;1.95;;
19195;SDS011;9730;48.926;11.376;2022-07-04T09:56:42;2.83;;;2.17;;
19195;SDS011;9730;48.926;11.376;2022-07-04T09:59:09;5.10;;;2.10;;
19195;SDS011;9730;48.926;11.376;2022-07-04T10:01:36;3.88;;;1.80;;
19195;SDS011;9730;48.926;11.376;2022-07-04T10:04:05;2.67;;;1.88;;
19195;SDS011;9730;48.926;11.376;2022-07-04T10:06:32;2.13;;;1.90;;
19195;SDS011;9730;48.926;11.376;2022-07-04T10:09:06;5.05;;;1.90;;
19195;SDS011;9730;48.926;11.376;2022-07-04T10:11:35;5.30;;;1.83;;
19195;SDS011;9730;48.926;11.376;2022-07-04T10:14:03;5.65;;;2.10;;
19195;SDS011;9730;48.926;11.376;2022-07-04T10:16:30;2.33;;;1.67;;
19195;SDS011;9730;48.926;11.376;2022-07-04T10:18:57;2.78;;;1.77;;
19195;SDS011;9730;48.926;11.376;2022-07-04T10:21:25;3.47;;;1.88;;
19195;SDS011;9730;48.926;11.376;2022-07-04T10:23:52;3.05;;;1.52;;
19195;SDS011;9730;48.926;11.376;2022-07-04T10:26:19;1.92;;;1.50;;
19195;SDS011;9730;48.926;11.376;2022-07-04T10:28:47;4.28;;;1.55;;
19195;SDS011;9730;48.926;11.376;2022-07-04T10:31:16;4.63;;;1.90;;
19195;SDS011;9730;48.926;11.376;2022-07-04T10:33:43;3.20;;;1.40;;
19195;SDS011;9730;48.926;11.376;2022-07-04T10:36:14;2.00;;;1.33;;
19195;SDS011;9730;48.926;11.376;2022-07-04T10:38:49;2.42;;;1.73;;
19195;SDS011;9730;48.926;11.376;2022-07-04T10:41:17;3.42;;;1.27;;
19195;SDS011;9730;48.926;11.376;2022-07-04T10:43:51;3.63;;;1.20;;
19195;SDS011;9730;48.926;11.376;2022-07-04T10:46:30;3.30;;;1.50;;
19195;SDS011;9730;48.926;11.376;2022-07-04T10:51:35;2.03;;;1.25;;
19195;SDS011;9730;48.926;11.376;2022-07-04T10:54:10;6.47;;;1.45;;
19195;SDS011;9730;48.926;11.376;2022-07-04T10:56:45;6.05;;;1.55;;
19195;SDS011;9730;48.926;11.376;2022-07-04T10:59:14;2.75;;;1.40;;
19195;SDS011;9730;48.926;11.376;2022-07-04T11:01:47;3.88;;;1.30;;
19195;SDS011;9730;48.926;11.376;2022-07-04T11:07:14;4.05;;;1.23;;
19195;SDS011;9730;48.926;11.376;2022-07-04T11:09:42;2.05;;;1.42;;
19195;SDS011;9730;48.926;11.376;2022-07-04T11:14:37;1.98;;;1.40;;
19195;SDS011;9730;48.926;11.376;2022-07-04T11:17:04;2.58;;;1.48;;
19195;SDS011;9730;48.926;11.376;2022-07-04T11:21:58;1.55;;;1.35;;
19195;SDS011;9730;48.926;11.376;2022-07-04T11:24:26;2.65;;;1.50;;
19195;SDS011;9730;48.926;11.376;2022-07-04T11:26:55;2.78;;;1.52;;
19195;SDS011;9730;48.926;11.376;2022-07-04T11:29:21;2.25;;;1.45;;
19195;SDS011;9730;48.926;11.376;2022-07-04T11:31:49;4.05;;;1.85;;
19195;SDS011;9730;48.926;11.376;2022-07-04T11:36:43;2.45;;;1.60;;
19195;SDS011;9730;48.926;11.376;2022-07-04T11:39:11;4.88;;;1.65;;
19195;SDS011;9730;48.926;11.376;2022-07-04T11:41:39;4.65;;;1.98;;
19195;SDS011;9730;48.926;11.376;2022-07-04T11:44:26;6.30;;;1.63;;
19195;SDS011;9730;48.926;11.376;2022-07-04T11:47:11;2.05;;;1.40;;
19195;SDS011;9730;48.926;11.376;2022-07-04T11:49:44;4.82;;;1.83;;
19195;SDS011;9730;48.926;11.376;2022-07-04T11:52:12;4.43;;;1.75;;
19195;SDS011;9730;48.926;11.376;2022-07-04T11:54:40;2.78;;;1.40;;
19195;SDS011;9730;48.926;11.376;2022-07-04T11:57:08;8.50;;;1.40;;
19195;SDS011;9730;48.926;11.376;2022-07-04T11:59:40;3.28;;;1.40;;
19195;SDS011;9730;48.926;11.376;2022-07-04T12:04:37;2.35;;;1.80;;
19195;SDS011;9730;48.926;11.376;2022-07-04T12:07:08;4.78;;;1.70;;
19195;SDS011;9730;48.926;11.376;2022-07-04T12:09:36;3.33;;;1.63;;
19195;SDS011;9730;48.926;11.376;2022-07-04T12:12:02;5.00;;;1.70;;
19195;SDS011;9730;48.926;11.376;2022-07-04T12:14:29;2.70;;;2.03;;
19195;SDS011;9730;48.926;11.376;2022-07-04T12:17:14;3.30;;;1.58;;
19195;SDS011;9730;48.926;11.376;2022-07-04T12:19:51;3.50;;;1.65;;
19195;SDS011;9730;48.926;11.376;2022-07-04T12:22:29;6.82;;;2.03;;
19195;SDS011;9730;48.926;11.376;2022-07-04T12:24:57;5.47;;;1.98;;
19195;SDS011;9730;48.926;11.376;2022-07-04T12:27:25;3.88;;;1.35;;
19195;SDS011;9730;48.926;11.376;2022-07-04T12:29:52;4.00;;;1.73;;
19195;SDS011;9730;48.926;11.376;2022-07-04T12:32:21;7.55;;;1.83;;
19195;SDS011;9730;48.926;11.376;2022-07-04T12:34:48;3.80;;;2.03;;
19195;SDS011;9730;48.926;11.376;2022-07-04T12:37:15;3.47;;;1.60;;
19195;SDS011;9730;48.926;11.376;2022-07-04T12:39:43;1.60;;;1.50;;
19195;SDS011;9730;48.926;11.376;2022-07-04T12:42:11;1.70;;;1.60;;
19195;SDS011;9730;48.926;11.376;2022-07-04T12:44:39;4.18;;;1.65;;
19195;SDS011;9730;48.926;11.376;2022-07-04T12:47:07;3.05;;;1.70;;
19195;SDS011;9730;48.926;11.376;2022-07-04T12:49:35;4.00;;;1.70;;
19195;SDS011;9730;48.926;11.376;2022-07-04T12:52:06;4.28;;;1.60;;
19195;SDS011;9730;48.926;11.376;2022-07-04T12:54:34;4.25;;;2.85;;
19195;SDS011;9730;48.926;11.376;2022-07-04T12:57:03;7.53;;;1.80;;
19195;SDS011;9730;48.926;11.376;2022-07-04T12:59:31;2.70;;;1.80;;
19195;SDS011;9730;48.926;11.376;2022-07-04T13:01:57;3.63;;;1.83;;
19195;SDS011;9730;48.926;11.376;2022-07-04T13:04:24;11.10;;;2.22;;
19195;SDS011;9730;48.926;11.376;2022-07-04T13:06:52;2.92;;;1.95;;
19195;SDS011;9730;48.926;11.376;2022-07-04T13:09:18;4.30;;;2.40;;
19195;SDS011;9730;48.926;11.376;2022-07-04T13:11:45;2.00;;;1.80;;
19195;SDS011;9730;48.926;11.376;2022-07-04T13:14:29;6.43;;;2.08;;
19195;SDS011;9730;48.926;11.376;2022-07-04T13:16:56;6.10;;;1.67;;
19195;SDS011;9730;48.926;11.376;2022-07-04T13:19:23;5.32;;;2.03;;
19195;SDS011;9730;48.926;11.376;2022-07-04T13:21:49;2.72;;;1.85;;
19195;SDS011;9730;48.926;11.376;2022-07-04T13:24:17;5.72;;;2.40;;
19195;SDS011;9730;48.926;11.376;2022-07-04T13:26:45;4.07;;;1.80;;
19195;SDS011;9730;48.926;11.376;2022-07-04T13:29:11;4.55;;;2.50;;
19195;SDS011;9730;48.926;11.376;2022-07-04T13:31:38;1.50;;;1.40;;
19195;SDS011;9730;48.926;11.376;2022-07-04T13:34:04;6.22;;;1.88;;
19195;SDS011;9730;48.926;11.376;2022-07-04T13:36:31;3.17;;;1.90;;
19195;SDS011;9730;48.926;11.376;2022-07-04T13:38:58;4.03;;;1.83;;
19195;SDS011;9730;48.926;11.376;2022-07-04T13:41:26;3.78;;;2.00;;
19195;SDS011;9730;48.926;11.376;2022-07-04T13:43:53;9.77;;;2.00;;
19195;SDS011;9730;48.926;11.376;2022-07-04T13:46:22;7.47;;;2.05;;
19195;SDS011;9730;48.926;11.376;2022-07-04T13:48:50;2.13;;;1.93;;
19195;SDS011;9730;48.926;11.376;2022-07-04T13:51:16;9.35;;;2.00;;
19195;SDS011;9730;48.926;11.376;2022-07-04T13:53:43;4.38;;;1.88;;
19195;SDS011;9730;48.926;11.376;2022-07-04T13:56:11;4.53;;;1.85;;
19195;SDS011;9730;48.926;11.376;2022-07-04T13:58:44;4.93;;;1.63;;
19195;SDS011;9730;48.926;11.376;2022-07-04T14:01:12;3.13;;;1.67;;
19195;SDS011;9730;48.926;11.376;2022-07-04T14:03:41;3.65;;;1.80;;
19195;SDS011;9730;48.926;11.376;2022-07-04T14:06:08;1.85;;;1.70;;
19195;SDS011;9730;48.926;11.376;2022-07-04T14:08:35;4.13;;;2.03;;
19195;SDS011;9730;48.926;11.376;2022-07-04T14:11:02;3.25;;;1.73;;
19195;SDS011;9730;48.926;11.376;2022-07-04T14:13:29;2.75;;;2.25;;
19195;SDS011;9730;48.926;11.376;2022-07-04T14:15:57;2.42;;;2.00;;
19195;SDS011;9730;48.926;11.376;2022-07-04T14:18:24;7.57;;;2.10;;
19195;SDS011;9730;48.926;11.376;2022-07-04T14:20:51;3.90;;;1.73;;
19195;SDS011;9730;48.926;11.376;2022-07-04T14:23:19;5.22;;;1.80;;
19195;SDS011;9730;48.926;11.376;2022-07-04T14:26:05;1.67;;;1.58;;
19195;SDS011;9730;48.926;11.376;2022-07-04T14:28:34;2.10;;;1.50;;
19195;SDS011;9730;48.926;11.376;2022-07-04T14:31:03;3.33;;;2.05;;
19195;SDS011;9730;48.926;11.376;2022-07-04T14:33:30;4.35;;;1.60;;
19195;SDS011;9730;48.926;11.376;2022-07-04T14:35:58;2.63;;;1.77;;
19195;SDS011;9730;48.926;11.376;2022-07-04T14:38:26;1.70;;;1.55;;
19195;SDS011;9730;48.926;11.376;2022-07-04T14:40:52;3.38;;;1.60;;
19195;SDS011;9730;48.926;11.376;2022-07-04T14:43:19;3.88;;;2.10;;
19195;SDS011;9730;48.926;11.376;2022-07-04T14:45:46;4.00;;;1.77;;
19195;SDS011;9730;48.926;11.376;2022-07-04T14:48:14;2.88;;;1.70;;
19195;SDS011;9730;48.926;11.376;2022-07-04T14:50:41;3.63;;;1.73;;
19195;SDS011;9730;48.926;11.376;2022-07-04T14:53:07;3.15;;;1.42;;
19195;SDS011;9730;48.926;11.376;2022-07-04T14:55:34;1.88;;;1.63;;
19195;SDS011;9730;48.926;11.376;2022-07-04T14:58:01;3.10;;;1.70;;
19195;SDS011;9730;48.926;11.376;2022-07-04T15:00:27;2.13;;;1.52;;
19195;SDS011;9730;48.926;11.376;2022-07-04T15:02:54;4.20;;;1.73;;
19195;SDS011;9730;48.926;11.376;2022-07-04T15:05:22;4.10;;;1.60;;
19195;SDS011;9730;48.926;11.376;2022-07-04T15:07:48;6.93;;;1.90;;
19195;SDS011;9730;48.926;11.376;2022-07-04T15:10:15;2.72;;;1.75;;
19195;SDS011;9730;48.926;11.376;2022-07-04T15:12:41;2.83;;;1.95;;